createdAt,value
2016-10-26T00:00:21.277Z,25.88
2016-10-26T00:01:01.982Z,25.88
2016-10-26T00:01:42.670Z,25.8
2016-10-26T00:02:23.371Z,25.9
2016-10-26T00:03:04.044Z,25.83
2016-10-26T00:03:44.703Z,25.92
2016-10-26T00:04:25.378Z,25.83
2016-10-26T00:05:06.033Z,25.77
2016-10-26T00:05:46.726Z,25.9
2016-10-26T00:06:27.419Z,25.87
2016-10-26T00:07:08.116Z,25.87
2016-10-26T00:07:48.781Z,25.85
2016-10-26T00:08:29.484Z,25.87
2016-10-26T00:09:10.178Z,25.9
2016-10-26T00:09:50.886Z,25.87
2016-10-26T00:10:31.520Z,25.83
2016-10-26T00:11:12.243Z,25.91
2016-10-26T00:11:52.954Z,25.87
2016-10-26T00:12:33.617Z,25.9
2016-10-26T00:13:14.289Z,25.85
2016-10-26T00:13:54.949Z,25.79
2016-10-26T00:14:35.646Z,25.83
2016-10-26T00:15:16.333Z,25.85
2016-10-26T00:15:56.986Z,25.83
2016-10-26T00:16:37.691Z,25.88
2016-10-26T00:17:18.371Z,25.83
2016-10-26T00:17:59.085Z,25.87
2016-10-26T00:18:39.771Z,25.83
2016-10-26T00:19:20.456Z,25.83
2016-10-26T00:20:01.187Z,25.85
2016-10-26T00:20:41.894Z,25.88
2016-10-26T00:21:22.581Z,25.85
2016-10-26T00:22:03.270Z,25.9
2016-10-26T00:22:43.938Z,25.85
2016-10-26T00:23:24.681Z,25.91
2016-10-26T00:24:05.376Z,25.82
2016-10-26T00:24:46.009Z,25.94
2016-10-26T00:25:26.698Z,25.88
2016-10-26T00:26:07.417Z,25.87
2016-10-26T00:26:48.114Z,25.83
2016-10-26T00:27:28.805Z,25.87
2016-10-26T00:28:09.534Z,25.79
2016-10-26T00:28:50.239Z,25.88
2016-10-26T00:29:30.920Z,25.88
2016-10-26T00:30:11.657Z,25.83
2016-10-26T00:30:52.296Z,25.88
2016-10-26T00:31:32.998Z,25.91
2016-10-26T00:32:13.707Z,25.82
2016-10-26T00:32:54.379Z,25.83
2016-10-26T00:33:35.081Z,25.88
2016-10-26T00:34:15.724Z,25.87
2016-10-26T00:34:56.407Z,25.85
2016-10-26T00:35:37.101Z,25.8
2016-10-26T00:36:17.806Z,25.88
2016-10-26T00:36:58.509Z,25.79
2016-10-26T00:37:39.225Z,25.87
2016-10-26T00:38:19.904Z,25.79
2016-10-26T00:39:00.642Z,25.83
2016-10-26T00:39:41.335Z,25.91
2016-10-26T00:40:22.019Z,25.8
2016-10-26T00:41:02.740Z,25.87
2016-10-26T00:41:43.416Z,25.85
2016-10-26T00:42:24.068Z,25.88
2016-10-26T00:43:04.738Z,25.9
2016-10-26T00:43:45.419Z,25.83
2016-10-26T00:44:26.118Z,25.9
2016-10-26T00:45:06.754Z,25.85
2016-10-26T00:45:47.487Z,25.79
2016-10-26T00:46:28.118Z,25.85
2016-10-26T00:47:08.839Z,25.79
2016-10-26T00:47:49.526Z,25.9
2016-10-26T00:48:30.156Z,25.76
2016-10-26T00:49:10.878Z,25.85
2016-10-26T00:49:51.545Z,25.76
2016-10-26T00:50:32.193Z,25.9
2016-10-26T00:51:12.826Z,25.83
2016-10-26T00:51:53.527Z,25.91
2016-10-26T00:52:34.225Z,25.82
2016-10-26T00:53:14.920Z,25.88
2016-10-26T00:53:55.600Z,25.91
2016-10-26T00:54:36.323Z,25.83
2016-10-26T00:55:17.017Z,25.87
2016-10-26T00:55:57.637Z,25.9
2016-10-26T00:56:38.368Z,25.82
2016-10-26T00:57:19.043Z,25.79
2016-10-26T00:57:59.739Z,25.87
2016-10-26T00:58:40.464Z,25.87
2016-10-26T00:59:21.105Z,25.79
2016-10-26T01:00:01.789Z,25.82
2016-10-26T01:00:42.446Z,25.87
2016-10-26T01:01:23.129Z,25.87
2016-10-26T01:02:03.847Z,25.83
2016-10-26T01:02:44.525Z,25.8
2016-10-26T01:03:25.168Z,25.82
2016-10-26T01:04:05.893Z,25.9
2016-10-26T01:04:46.575Z,25.88
2016-10-26T01:05:27.245Z,25.79
2016-10-26T01:06:07.926Z,25.87
2016-10-26T01:06:48.622Z,25.82
2016-10-26T01:07:29.270Z,25.8
2016-10-26T01:08:09.925Z,25.73
2016-10-26T01:08:50.591Z,25.79
2016-10-26T01:09:31.325Z,25.82
2016-10-26T01:10:12.001Z,25.79
2016-10-26T01:10:52.706Z,25.79
2016-10-26T01:11:33.397Z,25.85
2016-10-26T01:12:14.086Z,25.82
2016-10-26T01:12:54.817Z,25.8
2016-10-26T01:13:35.516Z,25.77
2016-10-26T01:14:16.215Z,25.76
2016-10-26T01:14:56.911Z,25.85
2016-10-26T01:15:37.659Z,25.82
2016-10-26T01:16:18.347Z,25.76
2016-10-26T01:16:59.065Z,25.76
2016-10-26T01:17:39.755Z,25.77
2016-10-26T01:18:20.475Z,25.8
2016-10-26T01:19:01.157Z,25.83
2016-10-26T01:19:41.847Z,25.8
2016-10-26T01:20:22.518Z,25.87
2016-10-26T01:21:03.207Z,25.77
2016-10-26T01:21:43.855Z,25.79
2016-10-26T01:22:24.527Z,25.77
2016-10-26T01:23:05.251Z,25.79
2016-10-26T01:23:45.911Z,25.85
2016-10-26T01:24:26.571Z,25.88
2016-10-26T01:25:07.252Z,25.73
2016-10-26T01:25:47.922Z,25.77
2016-10-26T01:26:28.628Z,25.79
2016-10-26T01:27:09.319Z,25.76
2016-10-26T01:27:50.020Z,25.85
2016-10-26T01:28:30.686Z,25.79
2016-10-26T01:29:11.382Z,25.87
2016-10-26T01:29:52.108Z,25.87
2016-10-26T01:30:32.767Z,25.77
2016-10-26T01:31:13.492Z,25.76
2016-10-26T01:31:54.189Z,25.85
2016-10-26T01:32:34.880Z,25.73
2016-10-26T01:33:15.603Z,25.87
2016-10-26T01:33:56.304Z,25.79
2016-10-26T01:34:37.949Z,25.79
2016-10-26T01:35:18.636Z,25.8
2016-10-26T01:35:59.356Z,25.77
2016-10-26T01:36:40.033Z,25.79
2016-10-26T01:37:20.775Z,25.77
2016-10-26T01:38:01.454Z,25.76
2016-10-26T01:38:42.129Z,25.82
2016-10-26T01:39:22.835Z,25.8
2016-10-26T01:40:03.499Z,25.79
2016-10-26T01:40:44.224Z,25.76
2016-10-26T01:41:24.917Z,25.82
2016-10-26T01:42:05.595Z,25.76
2016-10-26T01:42:46.284Z,25.8
2016-10-26T01:43:26.993Z,25.85
2016-10-26T01:44:07.665Z,25.79
2016-10-26T01:44:48.350Z,25.79
2016-10-26T01:45:29.008Z,25.83
2016-10-26T01:46:09.676Z,25.82
2016-10-26T01:46:50.361Z,25.79
2016-10-26T01:47:31.042Z,25.76
2016-10-26T01:48:11.748Z,25.77
2016-10-26T01:48:52.473Z,25.8
2016-10-26T01:49:33.146Z,25.79
2016-10-26T01:50:13.857Z,25.77
2016-10-26T01:50:54.551Z,25.77
2016-10-26T01:51:35.185Z,25.8
2016-10-26T01:52:15.850Z,25.82
2016-10-26T01:52:56.546Z,25.8
2016-10-26T01:53:37.227Z,25.82
2016-10-26T01:54:17.903Z,25.77
2016-10-26T01:54:58.606Z,25.82
2016-10-26T01:55:39.276Z,25.85
2016-10-26T01:56:19.954Z,25.87
2016-10-26T01:57:00.642Z,25.8
2016-10-26T01:57:41.358Z,25.83
2016-10-26T01:58:22.023Z,25.79
2016-10-26T01:59:02.729Z,25.79
2016-10-26T01:59:43.394Z,25.79
2016-10-26T02:00:24.077Z,25.87
2016-10-26T02:01:04.773Z,25.82
2016-10-26T02:01:45.434Z,25.79
2016-10-26T02:02:26.121Z,25.82
2016-10-26T02:03:06.848Z,25.85
2016-10-26T02:03:47.500Z,25.79
2016-10-26T02:04:28.186Z,25.77
2016-10-26T02:05:08.857Z,25.79
2016-10-26T02:05:49.534Z,25.79
2016-10-26T02:06:30.197Z,25.77
2016-10-26T02:07:10.907Z,25.8
2016-10-26T02:07:51.605Z,25.8
2016-10-26T02:08:32.270Z,25.79
2016-10-26T02:09:12.930Z,25.79
2016-10-26T02:09:53.594Z,25.79
2016-10-26T02:10:34.281Z,25.79
2016-10-26T02:11:14.995Z,25.79
2016-10-26T02:11:55.659Z,25.75
2016-10-26T02:12:36.380Z,25.85
2016-10-26T02:13:17.047Z,25.83
2016-10-26T02:13:57.766Z,25.8
2016-10-26T02:14:38.434Z,25.85
2016-10-26T02:15:19.158Z,25.77
2016-10-26T02:15:59.820Z,25.7
2016-10-26T02:16:40.526Z,25.77
2016-10-26T02:17:21.258Z,25.85
2016-10-26T02:18:01.955Z,25.79
2016-10-26T02:18:42.639Z,25.82
2016-10-26T02:19:23.331Z,25.87
2016-10-26T02:20:04.045Z,25.8
2016-10-26T02:20:44.714Z,25.88
2016-10-26T02:21:25.403Z,25.85
2016-10-26T02:22:06.127Z,25.82
2016-10-26T02:22:46.813Z,25.85
2016-10-26T02:23:27.455Z,25.8
2016-10-26T02:24:08.139Z,25.82
2016-10-26T02:24:48.770Z,25.8
2016-10-26T02:25:29.994Z,25.77
2016-10-26T02:26:10.140Z,25.73
2016-10-26T02:26:50.868Z,25.8
2016-10-26T02:27:31.552Z,25.82
2016-10-26T02:28:12.232Z,25.8
2016-10-26T02:28:52.916Z,25.83
2016-10-26T02:29:33.628Z,25.82
2016-10-26T02:30:14.343Z,25.82
2016-10-26T02:30:55.059Z,25.82
2016-10-26T02:31:35.721Z,25.82
2016-10-26T02:32:16.424Z,25.8
2016-10-26T02:32:57.129Z,25.75
2016-10-26T02:33:37.816Z,25.77
2016-10-26T02:34:18.545Z,25.75
2016-10-26T02:34:59.261Z,25.79
2016-10-26T02:35:39.924Z,25.8
2016-10-26T02:36:20.617Z,25.82
2016-10-26T02:37:01.289Z,25.79
2016-10-26T02:37:41.966Z,25.85
2016-10-26T02:38:22.619Z,25.79
2016-10-26T02:39:03.348Z,25.77
2016-10-26T02:39:44.052Z,25.76
2016-10-26T02:40:24.783Z,25.82
2016-10-26T02:41:05.437Z,25.82
2016-10-26T02:41:46.141Z,25.8
2016-10-26T02:42:26.822Z,25.77
2016-10-26T02:43:07.488Z,25.8
2016-10-26T02:43:48.126Z,25.75
2016-10-26T02:44:28.849Z,25.79
2016-10-26T02:45:09.518Z,25.83
2016-10-26T02:45:50.204Z,25.82
2016-10-26T02:46:30.923Z,25.82
2016-10-26T02:47:11.582Z,25.73
2016-10-26T02:47:52.278Z,25.76
2016-10-26T02:48:32.966Z,25.83
2016-10-26T02:49:13.701Z,25.77
2016-10-26T02:49:54.403Z,25.79
2016-10-26T02:50:35.086Z,25.8
2016-10-26T02:51:15.764Z,25.77
2016-10-26T02:51:56.456Z,25.75
2016-10-26T02:52:37.184Z,25.76
2016-10-26T02:53:17.862Z,25.77
2016-10-26T02:53:58.591Z,25.82
2016-10-26T02:54:39.297Z,25.77
2016-10-26T02:55:19.964Z,25.77
2016-10-26T02:56:00.650Z,25.8
2016-10-26T02:56:41.333Z,25.83
2016-10-26T02:57:22.002Z,25.82
2016-10-26T02:58:02.706Z,25.77
2016-10-26T02:58:43.408Z,25.76
2016-10-26T02:59:24.094Z,25.73
2016-10-26T03:00:04.797Z,25.73
2016-10-26T03:00:45.465Z,25.77
2016-10-26T03:01:26.126Z,25.73
2016-10-26T03:02:06.782Z,25.82
2016-10-26T03:02:47.504Z,25.76
2016-10-26T03:03:28.206Z,25.82
2016-10-26T03:04:09.866Z,25.76
2016-10-26T03:04:50.536Z,25.76
2016-10-26T03:05:31.227Z,25.77
2016-10-26T03:06:11.946Z,25.82
2016-10-26T03:06:52.636Z,25.75
2016-10-26T03:07:33.328Z,25.76
2016-10-26T03:08:14.003Z,25.82
2016-10-26T03:08:54.690Z,25.73
2016-10-26T03:09:35.351Z,25.75
2016-10-26T03:10:16.070Z,25.79
2016-10-26T03:10:56.796Z,25.79
2016-10-26T03:11:37.490Z,25.79
2016-10-26T03:12:18.188Z,25.77
2016-10-26T03:12:58.845Z,25.77
2016-10-26T03:13:39.530Z,25.8
2016-10-26T03:14:20.202Z,25.73
2016-10-26T03:15:00.872Z,25.83
2016-10-26T03:15:41.566Z,25.7
2016-10-26T03:16:22.259Z,25.75
2016-10-26T03:17:02.942Z,25.73
2016-10-26T03:17:44.525Z,25.77
2016-10-26T03:18:24.263Z,25.75
2016-10-26T03:19:04.948Z,25.77
2016-10-26T03:19:45.672Z,25.75
2016-10-26T03:20:26.360Z,25.75
2016-10-26T03:21:07.018Z,25.72
2016-10-26T03:21:47.684Z,25.77
2016-10-26T03:22:28.373Z,25.77
2016-10-26T03:23:09.060Z,25.79
2016-10-26T03:23:49.729Z,25.73
2016-10-26T03:24:30.407Z,25.75
2016-10-26T03:25:11.073Z,25.82
2016-10-26T03:25:51.760Z,25.73
2016-10-26T03:26:32.385Z,25.77
2016-10-26T03:27:13.014Z,25.76
2016-10-26T03:27:53.725Z,25.8
2016-10-26T03:28:34.411Z,25.76
2016-10-26T03:29:15.105Z,25.73
2016-10-26T03:29:55.747Z,25.8
2016-10-26T03:30:36.393Z,25.72
2016-10-26T03:31:17.087Z,25.83
2016-10-26T03:31:57.778Z,25.75
2016-10-26T03:32:38.463Z,25.8
2016-10-26T03:33:19.169Z,25.77
2016-10-26T03:33:59.824Z,25.7
2016-10-26T03:34:40.505Z,25.76
2016-10-26T03:35:21.252Z,25.75
2016-10-26T03:36:01.985Z,25.76
2016-10-26T03:36:42.708Z,25.77
2016-10-26T03:37:23.385Z,25.77
2016-10-26T03:38:04.091Z,25.82
2016-10-26T03:38:44.726Z,25.77
2016-10-26T03:39:25.377Z,25.73
2016-10-26T03:40:06.024Z,25.76
2016-10-26T03:40:46.719Z,25.79
2016-10-26T03:41:27.389Z,25.7
2016-10-26T03:42:08.026Z,25.72
2016-10-26T03:42:48.715Z,25.76
2016-10-26T03:43:29.407Z,25.7
2016-10-26T03:44:10.061Z,25.79
2016-10-26T03:44:50.780Z,25.72
2016-10-26T03:45:31.497Z,25.76
2016-10-26T03:46:12.176Z,25.75
2016-10-26T03:46:52.883Z,25.76
2016-10-26T03:47:33.593Z,25.73
2016-10-26T03:48:14.288Z,25.75
2016-10-26T03:48:54.954Z,25.72
2016-10-26T03:49:35.637Z,25.77
2016-10-26T03:50:16.361Z,25.7
2016-10-26T03:50:57.053Z,25.75
2016-10-26T03:51:37.699Z,25.73
2016-10-26T03:52:18.336Z,25.79
2016-10-26T03:52:59.059Z,25.76
2016-10-26T03:53:39.730Z,25.79
2016-10-26T03:54:20.425Z,25.73
2016-10-26T03:55:01.129Z,25.76
2016-10-26T03:55:41.810Z,25.75
2016-10-26T03:56:22.508Z,25.77
2016-10-26T03:57:03.198Z,25.72
2016-10-26T03:57:43.897Z,25.79
2016-10-26T03:58:24.540Z,25.77
2016-10-26T03:59:05.244Z,25.77
2016-10-26T03:59:45.925Z,25.73
2016-10-26T04:00:26.606Z,25.72
2016-10-26T04:01:07.260Z,25.8
2016-10-26T04:01:47.950Z,25.75
2016-10-26T04:02:28.613Z,25.77
2016-10-26T04:03:09.323Z,25.72
2016-10-26T04:03:50.040Z,25.69
2016-10-26T04:04:30.750Z,25.72
2016-10-26T04:05:11.445Z,25.79
2016-10-26T04:05:52.174Z,25.76
2016-10-26T04:06:32.867Z,25.76
2016-10-26T04:07:13.497Z,25.75
2016-10-26T04:07:54.199Z,25.76
2016-10-26T04:08:34.942Z,25.7
2016-10-26T04:09:15.633Z,25.82
2016-10-26T04:09:56.343Z,25.7
2016-10-26T04:10:37.097Z,25.72
2016-10-26T04:11:17.801Z,25.75
2016-10-26T04:11:58.505Z,25.8
2016-10-26T04:12:39.169Z,25.76
2016-10-26T04:13:19.844Z,25.73
2016-10-26T04:14:00.533Z,25.76
2016-10-26T04:14:41.229Z,25.76
2016-10-26T04:15:21.938Z,25.72
2016-10-26T04:16:02.623Z,25.73
2016-10-26T04:16:43.328Z,25.72
2016-10-26T04:17:24.017Z,25.77
2016-10-26T04:18:04.659Z,25.76
2016-10-26T04:18:46.013Z,25.76
2016-10-26T04:19:26.676Z,25.76
2016-10-26T04:20:07.360Z,25.76
2016-10-26T04:20:48.032Z,25.73
2016-10-26T04:21:28.674Z,25.72
2016-10-26T04:22:09.359Z,25.72
2016-10-26T04:22:50.077Z,25.7
2016-10-26T04:23:30.772Z,25.76
2016-10-26T04:24:11.464Z,25.8
2016-10-26T04:24:52.129Z,25.72
2016-10-26T04:25:32.824Z,25.8
2016-10-26T04:26:13.485Z,25.75
2016-10-26T04:26:54.209Z,25.72
2016-10-26T04:27:34.899Z,25.77
2016-10-26T04:28:15.615Z,25.72
2016-10-26T04:28:56.286Z,25.73
2016-10-26T04:29:36.961Z,25.82
2016-10-26T04:30:17.639Z,25.77
2016-10-26T04:30:58.332Z,25.75
2016-10-26T04:31:39.030Z,25.72
2016-10-26T04:32:19.711Z,25.75
2016-10-26T04:33:00.399Z,25.73
2016-10-26T04:33:41.135Z,25.75
2016-10-26T04:34:21.805Z,25.77
2016-10-26T04:35:02.527Z,25.72
2016-10-26T04:35:43.187Z,25.77
2016-10-26T04:36:23.960Z,25.75
2016-10-26T04:37:04.609Z,25.77
2016-10-26T04:37:45.301Z,25.82
2016-10-26T04:38:25.996Z,25.76
2016-10-26T04:39:06.684Z,25.76
2016-10-26T04:39:47.365Z,25.77
2016-10-26T04:40:28.065Z,25.73
2016-10-26T04:41:08.765Z,25.72
2016-10-26T04:41:49.456Z,25.77
2016-10-26T04:42:30.122Z,25.73
2016-10-26T04:43:10.807Z,25.8
2016-10-26T04:43:51.491Z,25.77
2016-10-26T04:44:32.197Z,25.75
2016-10-26T04:45:12.862Z,25.76
2016-10-26T04:45:53.543Z,25.82
2016-10-26T04:46:34.272Z,25.76
2016-10-26T04:47:14.928Z,25.75
2016-10-26T04:47:55.581Z,25.79
2016-10-26T04:48:36.302Z,25.77
2016-10-26T04:49:16.945Z,25.73
2016-10-26T04:49:57.690Z,25.73
2016-10-26T04:50:38.349Z,25.75
2016-10-26T04:51:19.040Z,25.75
2016-10-26T04:51:59.729Z,25.8
2016-10-26T04:52:40.466Z,25.76
2016-10-26T04:53:21.164Z,25.8
2016-10-26T04:54:01.877Z,25.7
2016-10-26T04:54:42.560Z,25.8
2016-10-26T04:55:23.316Z,25.67
2016-10-26T04:56:04.041Z,25.73
2016-10-26T04:56:44.749Z,25.73
2016-10-26T04:57:25.415Z,25.79
2016-10-26T04:58:06.132Z,25.72
2016-10-26T04:58:46.823Z,25.76
2016-10-26T04:59:27.537Z,25.73
2016-10-26T05:00:08.208Z,25.76
2016-10-26T05:00:48.882Z,25.72
2016-10-26T05:01:29.575Z,25.82
2016-10-26T05:02:10.223Z,25.8
2016-10-26T05:02:50.892Z,25.72
2016-10-26T05:03:31.595Z,25.75
2016-10-26T05:04:12.261Z,25.75
2016-10-26T05:04:52.955Z,25.73
2016-10-26T05:05:33.681Z,25.76
2016-10-26T05:06:14.330Z,25.77
2016-10-26T05:06:55.012Z,25.73
2016-10-26T05:07:35.672Z,25.75
2016-10-26T05:08:16.323Z,25.73
2016-10-26T05:08:57.026Z,25.76
2016-10-26T05:09:37.694Z,25.69
2016-10-26T05:10:18.392Z,25.72
2016-10-26T05:10:59.088Z,25.73
2016-10-26T05:11:39.759Z,25.79
2016-10-26T05:12:20.422Z,25.72
2016-10-26T05:13:01.135Z,25.7
2016-10-26T05:13:41.824Z,25.75
2016-10-26T05:14:22.524Z,25.75
2016-10-26T05:15:03.230Z,25.7
2016-10-26T05:15:43.923Z,25.77
2016-10-26T05:16:24.603Z,25.77
2016-10-26T05:17:05.266Z,25.72
2016-10-26T05:17:45.932Z,25.73
2016-10-26T05:18:26.608Z,25.75
2016-10-26T05:19:07.253Z,25.73
2016-10-26T05:19:47.969Z,25.67
2016-10-26T05:20:28.617Z,25.79
2016-10-26T05:21:10.076Z,25.76
2016-10-26T05:21:50.756Z,25.75
2016-10-26T05:22:32.087Z,25.76
2016-10-26T05:23:12.778Z,25.73
2016-10-26T05:23:53.449Z,25.72
2016-10-26T05:24:34.138Z,25.77
2016-10-26T05:25:14.807Z,25.73
2016-10-26T05:25:55.507Z,25.73
2016-10-26T05:26:36.223Z,25.76
2016-10-26T05:27:16.897Z,25.76
2016-10-26T05:27:57.603Z,25.72
2016-10-26T05:28:38.256Z,25.82
2016-10-26T05:29:18.903Z,25.72
2016-10-26T05:29:59.584Z,25.8
2016-10-26T05:30:40.247Z,25.82
2016-10-26T05:31:20.975Z,25.77
2016-10-26T05:32:01.645Z,25.79
2016-10-26T05:32:42.328Z,25.75
2016-10-26T05:33:23.034Z,25.73
2016-10-26T05:34:03.693Z,25.72
2016-10-26T05:34:44.392Z,25.72
2016-10-26T05:35:25.089Z,25.77
2016-10-26T05:36:05.722Z,25.77
2016-10-26T05:36:46.429Z,25.79
2016-10-26T05:37:27.134Z,25.75
2016-10-26T05:38:07.786Z,25.72
2016-10-26T05:38:48.472Z,25.73
2016-10-26T05:39:29.158Z,25.77
2016-10-26T05:40:09.868Z,25.73
2016-10-26T05:40:50.571Z,25.76
2016-10-26T05:41:31.251Z,25.73
2016-10-26T05:42:11.933Z,25.77
2016-10-26T05:42:52.593Z,25.76
2016-10-26T05:43:33.346Z,25.73
2016-10-26T05:44:14.078Z,25.72
2016-10-26T05:44:54.755Z,25.79
2016-10-26T05:45:35.474Z,25.72
2016-10-26T05:46:16.139Z,25.72
2016-10-26T05:46:56.847Z,25.75
2016-10-26T05:47:37.566Z,25.72
2016-10-26T05:48:18.277Z,25.76
2016-10-26T05:48:58.932Z,25.77
2016-10-26T05:49:39.622Z,25.72
2016-10-26T05:50:20.331Z,25.8
2016-10-26T05:51:00.976Z,25.72
2016-10-26T05:51:41.596Z,25.75
2016-10-26T05:52:22.337Z,25.72
2016-10-26T05:53:02.995Z,25.76
2016-10-26T05:53:43.665Z,25.73
2016-10-26T05:54:24.366Z,25.75
2016-10-26T05:55:05.037Z,25.79
2016-10-26T05:55:45.763Z,25.72
2016-10-26T05:56:26.476Z,25.73
2016-10-26T05:57:07.170Z,25.72
2016-10-26T05:57:47.872Z,25.8
2016-10-26T05:58:28.504Z,25.72
2016-10-26T05:59:09.233Z,25.76
2016-10-26T05:59:49.915Z,25.7
2016-10-26T06:00:30.573Z,25.67
2016-10-26T06:01:11.220Z,25.75
2016-10-26T06:01:51.882Z,25.69
2016-10-26T06:02:32.567Z,25.8
2016-10-26T06:03:13.239Z,25.73
2016-10-26T06:03:53.907Z,25.73
2016-10-26T06:04:34.573Z,25.77
2016-10-26T06:05:15.234Z,25.73
2016-10-26T06:05:55.936Z,25.77
2016-10-26T06:06:36.656Z,25.79
2016-10-26T06:07:17.386Z,25.76
2016-10-26T06:07:58.077Z,25.76
2016-10-26T06:08:38.793Z,25.73
2016-10-26T06:09:19.501Z,25.79
2016-10-26T06:10:00.205Z,25.73
2016-10-26T06:10:40.855Z,25.7
2016-10-26T06:11:21.543Z,25.75
2016-10-26T06:12:02.189Z,25.72
2016-10-26T06:12:42.882Z,25.77
2016-10-26T06:13:23.595Z,25.79
2016-10-26T06:14:04.240Z,25.77
2016-10-26T06:14:44.961Z,25.73
2016-10-26T06:15:25.655Z,25.83
2016-10-26T06:16:06.355Z,25.88
2016-10-26T06:16:47.064Z,25.79
2016-10-26T06:17:27.772Z,25.88
2016-10-26T06:18:08.478Z,25.91
2016-10-26T06:18:49.149Z,25.91
2016-10-26T06:19:29.833Z,25.88
2016-10-26T06:20:10.535Z,25.9
2016-10-26T06:20:51.216Z,25.92
2016-10-26T06:21:31.925Z,25.91
2016-10-26T06:22:12.594Z,25.91
2016-10-26T06:22:53.311Z,25.87
2016-10-26T06:23:34.000Z,25.87
2016-10-26T06:24:14.689Z,25.88
2016-10-26T06:24:55.374Z,25.88
2016-10-26T06:25:36.101Z,25.91
2016-10-26T06:26:16.796Z,25.92
2016-10-26T06:26:57.426Z,25.9
2016-10-26T06:27:38.090Z,25.95
2016-10-26T06:28:18.796Z,25.98
2016-10-26T06:28:59.488Z,25.94
2016-10-26T06:29:40.178Z,25.97
2016-10-26T06:30:20.861Z,26.05
2016-10-26T06:31:01.541Z,25.97
2016-10-26T06:31:42.238Z,26.02
2016-10-26T06:32:22.977Z,26.06
2016-10-26T06:33:03.583Z,25.97
2016-10-26T06:33:44.306Z,26.06
2016-10-26T06:34:25.023Z,26.02
2016-10-26T06:35:05.772Z,25.91
2016-10-26T06:35:46.445Z,26.02
2016-10-26T06:36:27.146Z,25.97
2016-10-26T06:37:07.879Z,26.01
2016-10-26T06:37:48.496Z,26.05
2016-10-26T06:38:29.235Z,26.06
2016-10-26T06:39:09.881Z,25.98
2016-10-26T06:39:50.637Z,26.05
2016-10-26T06:40:31.334Z,25.97
2016-10-26T06:41:12.033Z,26.05
2016-10-26T06:41:52.735Z,26.05
2016-10-26T06:42:33.421Z,26.02
2016-10-26T06:43:14.128Z,25.99
2016-10-26T06:43:54.823Z,26.07
2016-10-26T06:44:35.529Z,25.99
2016-10-26T06:45:16.268Z,25.98
2016-10-26T06:45:56.934Z,25.98
2016-10-26T06:46:37.668Z,26.01
2016-10-26T06:47:18.365Z,25.97
2016-10-26T06:47:59.108Z,26.01
2016-10-26T06:48:39.817Z,26.05
2016-10-26T06:49:20.498Z,26.05
2016-10-26T06:50:01.174Z,26.09
2016-10-26T06:50:41.824Z,26.06
2016-10-26T06:51:22.533Z,26.01
2016-10-26T06:52:03.215Z,26.12
2016-10-26T06:52:43.905Z,26.02
2016-10-26T06:53:24.648Z,26.06
2016-10-26T06:54:05.352Z,26.09
2016-10-26T06:54:46.090Z,26.01
2016-10-26T06:55:26.798Z,26.07
2016-10-26T06:56:07.500Z,26.09
2016-10-26T06:56:48.190Z,26.07
2016-10-26T06:57:28.835Z,26.1
2016-10-26T06:58:09.511Z,26.07
2016-10-26T06:58:50.246Z,26.12
2016-10-26T06:59:30.950Z,26.09
2016-10-26T07:00:11.618Z,26.07
2016-10-26T07:00:52.332Z,26.09
2016-10-26T07:01:33.088Z,26.05
2016-10-26T07:02:13.751Z,26.07
2016-10-26T07:02:54.473Z,26.06
2016-10-26T07:03:35.129Z,26.06
2016-10-26T07:04:15.856Z,26.09
2016-10-26T07:04:56.527Z,26.09
2016-10-26T07:05:37.233Z,26.12
2016-10-26T07:06:17.921Z,26.06
2016-10-26T07:06:58.617Z,26.05
2016-10-26T07:07:39.347Z,26.02
2016-10-26T07:08:20.040Z,26.06
2016-10-26T07:09:00.807Z,26.07
2016-10-26T07:09:41.541Z,26.06
2016-10-26T07:10:22.219Z,26.07
2016-10-26T07:11:02.912Z,26.06
2016-10-26T07:11:43.641Z,26.09
2016-10-26T07:12:24.311Z,26.05
2016-10-26T07:13:05.016Z,26.09
2016-10-26T07:13:45.703Z,26.06
2016-10-26T07:14:26.401Z,26.06
2016-10-26T07:15:07.121Z,26.07
2016-10-26T07:15:47.816Z,26.05
2016-10-26T07:16:28.524Z,26.07
2016-10-26T07:17:09.280Z,26.06
2016-10-26T07:17:49.960Z,26.05
2016-10-26T07:18:30.659Z,26.05
2016-10-26T07:19:11.375Z,26.07
2016-10-26T07:19:52.056Z,26.05
2016-10-26T07:20:32.821Z,26.1
2016-10-26T07:21:13.571Z,26.07
2016-10-26T07:21:54.252Z,26.07
2016-10-26T07:22:35.002Z,26.09
2016-10-26T07:23:15.671Z,26.1
2016-10-26T07:23:56.414Z,26.07
2016-10-26T07:24:37.065Z,26.05
2016-10-26T07:25:17.742Z,26.18
2016-10-26T07:25:58.420Z,26.07
2016-10-26T07:26:39.148Z,26.13
2016-10-26T07:27:19.873Z,26.09
2016-10-26T07:28:00.592Z,26.06
2016-10-26T07:28:41.281Z,26.09
2016-10-26T07:29:21.957Z,26.21
2016-10-26T07:30:02.634Z,26.09
2016-10-26T07:31:23.978Z,26.18
2016-10-26T07:32:04.703Z,26.12
2016-10-26T07:32:45.374Z,26.1
2016-10-26T07:33:26.139Z,26.06
2016-10-26T07:34:06.856Z,26.15
2016-10-26T07:34:47.583Z,26.12
2016-10-26T07:35:28.303Z,26.15
2016-10-26T07:36:09.048Z,26.2
2016-10-26T07:36:49.739Z,26.12
2016-10-26T07:37:30.497Z,26.15
2016-10-26T07:38:11.261Z,26.13
2016-10-26T07:38:51.963Z,26.17
2016-10-26T07:39:32.695Z,26.17
2016-10-26T07:40:13.415Z,26.12
2016-10-26T07:40:54.167Z,26.25
2016-10-26T07:41:34.835Z,26.09
2016-10-26T07:42:15.574Z,26.17
2016-10-26T07:42:56.319Z,26.17
2016-10-26T07:43:37.062Z,26.15
2016-10-26T07:44:17.737Z,26.28
2016-10-26T07:44:58.457Z,26.2
2016-10-26T07:45:39.227Z,26.21
2016-10-26T07:46:19.931Z,26.23
2016-10-26T07:47:00.653Z,26.18
2016-10-26T07:47:41.384Z,26.23
2016-10-26T07:48:22.031Z,26.2
2016-10-26T07:49:02.737Z,26.23
2016-10-26T07:49:43.438Z,26.21
2016-10-26T07:50:24.128Z,26.18
2016-10-26T07:51:04.847Z,26.15
2016-10-26T07:51:45.516Z,26.18
2016-10-26T07:52:26.280Z,26.29
2016-10-26T07:53:07.039Z,26.15
2016-10-26T07:53:47.766Z,26.25
2016-10-26T07:54:28.559Z,26.18
2016-10-26T07:55:09.196Z,26.29
2016-10-26T07:55:49.982Z,26.33
2016-10-26T07:56:30.719Z,26.15
2016-10-26T07:57:11.560Z,26.21
2016-10-26T07:57:52.769Z,26.21
2016-10-26T07:58:34.099Z,26.3
2016-10-26T07:59:14.821Z,26.25
2016-10-26T07:59:55.572Z,26.21
2016-10-26T08:00:36.289Z,26.25
2016-10-26T08:01:17.018Z,26.28
2016-10-26T08:01:57.802Z,26.28
2016-10-26T08:02:38.537Z,26.26
2016-10-26T08:03:19.834Z,26.17
2016-10-26T08:04:00.562Z,26.3
2016-10-26T08:04:41.296Z,26.23
2016-10-26T08:05:22.059Z,26.2
2016-10-26T08:06:02.803Z,26.29
2016-10-26T08:06:43.565Z,26.26
2016-10-26T08:07:24.306Z,26.25
2016-10-26T08:08:05.071Z,26.28
2016-10-26T08:08:45.798Z,26.29
2016-10-26T08:09:26.487Z,26.26
2016-10-26T08:10:07.188Z,26.32
2016-10-26T08:10:47.913Z,26.26
2016-10-26T08:11:28.675Z,26.3
2016-10-26T08:12:09.410Z,26.25
2016-10-26T08:12:50.150Z,26.26
2016-10-26T08:13:30.833Z,26.26
2016-10-26T08:14:11.590Z,26.26
2016-10-26T08:14:52.314Z,26.26
2016-10-26T08:15:33.034Z,26.36
2016-10-26T08:16:13.739Z,26.29
2016-10-26T08:16:54.514Z,26.23
2016-10-26T08:17:35.251Z,26.35
2016-10-26T08:18:15.983Z,26.29
2016-10-26T08:18:56.718Z,26.28
2016-10-26T08:19:37.458Z,26.23
2016-10-26T08:20:18.193Z,26.25
2016-10-26T08:20:59.758Z,26.28
2016-10-26T08:21:40.444Z,26.35
2016-10-26T08:22:21.170Z,26.36
2016-10-26T08:23:01.927Z,26.29
2016-10-26T08:23:42.679Z,26.33
2016-10-26T08:24:23.386Z,26.25
2016-10-26T08:25:04.112Z,26.17
2016-10-26T08:25:44.858Z,26.29
2016-10-26T08:26:25.583Z,26.32
2016-10-26T08:27:06.307Z,26.3
2016-10-26T08:27:47.094Z,26.29
2016-10-26T08:28:27.789Z,26.32
2016-10-26T08:29:08.526Z,26.29
2016-10-26T08:29:49.254Z,26.3
2016-10-26T08:30:29.976Z,26.35
2016-10-26T08:31:10.718Z,26.26
2016-10-26T08:31:51.495Z,26.29
2016-10-26T08:32:32.193Z,26.32
2016-10-26T08:33:12.947Z,26.33
2016-10-26T08:33:53.647Z,26.36
2016-10-26T08:34:34.380Z,26.36
2016-10-26T08:35:15.071Z,26.29
2016-10-26T08:35:55.763Z,26.3
2016-10-26T08:36:36.529Z,26.33
2016-10-26T08:37:17.231Z,26.35
2016-10-26T08:37:58.012Z,26.32
2016-10-26T08:38:38.734Z,26.35
2016-10-26T08:39:19.447Z,26.29
2016-10-26T08:40:00.146Z,26.37
2016-10-26T08:40:40.873Z,26.37
2016-10-26T08:41:21.631Z,26.4
2016-10-26T08:42:02.309Z,26.35
2016-10-26T08:42:42.993Z,26.37
2016-10-26T08:43:23.681Z,26.37
2016-10-26T08:44:04.396Z,26.39
2016-10-26T08:44:45.149Z,26.39
2016-10-26T08:45:25.915Z,26.44
2016-10-26T08:46:06.674Z,26.36
2016-10-26T08:46:47.409Z,26.45